Time;durP1;ratioP1;P1;durP2;ratioP2;P2;SDS_P1;SDS_P2;PMS_P1;PMS_P2;Temp;Humidity;BMP_temperature;BMP_pressure;BME280_temperature;BME280_humidity;BME280_pressure;Samples;Min_cycle;Max_cycle;Signal;HPM_P1;HPM_P2
2023/10/28 00:02:20;;;;;;;3.93;3.30;;;21.90;59.00;;;;;;5055958;28;20413;-67
2023/10/28 00:04:45;;;;;;;5.80;4.27;;;21.90;59.00;;;;;;5055339;28;20444;-67
2023/10/28 00:07:11;;;;;;;3.50;3.10;;;21.90;59.00;;;;;;5055223;28;20417;-68
2023/10/28 00:09:37;;;;;;;4.20;3.30;;;21.90;59.00;;;;;;5055480;28;20186;-68
2023/10/28 00:12:03;;;;;;;6.17;3.87;;;21.90;59.00;;;;;;5055526;28;20175;-66
2023/10/28 00:14:28;;;;;;;6.40;3.57;;;21.90;59.10;;;;;;5054940;28;20569;-68
2023/10/28 00:16:54;;;;;;;3.80;3.40;;;21.90;59.00;;;;;;5055418;28;20179;-65
2023/10/28 00:19:20;;;;;;;7.20;4.00;;;21.90;59.00;;;;;;5055180;28;20730;-67
2023/10/28 00:21:45;;;;;;;4.80;3.60;;;21.90;59.00;;;;;;5055400;28;20253;-68
2023/10/28 00:24:11;;;;;;;4.17;3.67;;;21.90;59.00;;;;;;5055390;28;20515;-67
2023/10/28 00:26:37;;;;;;;5.60;4.00;;;21.90;59.00;;;;;;5055030;28;20175;-67
2023/10/28 00:29:02;;;;;;;5.60;3.67;;;21.90;59.00;;;;;;5054933;28;20222;-67
2023/10/28 00:31:28;;;;;;;4.87;4.03;;;21.90;59.00;;;;;;5055412;28;20555;-68
2023/10/28 00:33:54;;;;;;;5.13;3.63;;;21.90;59.00;;;;;;5047512;28;20175;-67
2023/10/28 00:36:19;;;;;;;5.83;3.70;;;21.90;59.00;;;;;;5054583;28;20594;-66
2023/10/28 00:38:45;;;;;;;4.90;4.13;;;21.90;59.00;;;;;;5054691;28;20186;-67
2023/10/28 00:41:11;;;;;;;4.40;3.50;;;21.90;59.00;;;;;;5054251;28;20167;-66
2023/10/28 00:43:37;;;;;;;4.57;3.17;;;21.90;59.10;;;;;;5054748;28;20216;-67
2023/10/28 00:46:03;;;;;;;4.90;3.30;;;21.90;59.10;;;;;;5054515;28;20202;-65
2023/10/28 00:48:30;;;;;;;3.90;2.90;;;21.90;59.10;;;;;;5054423;28;20203;-66
2023/10/28 00:50:57;;;;;;;4.10;3.60;;;21.90;59.10;;;;;;5054983;28;20412;-67
2023/10/28 00:53:25;;;;;;;4.17;3.03;;;21.90;59.10;;;;;;5054773;28;20413;-67
2023/10/28 00:55:51;;;;;;;3.87;3.47;;;21.90;59.10;;;;;;5054621;28;20425;-67
2023/10/28 00:58:21;;;;;;;6.20;4.27;;;21.90;59.10;;;;;;5054187;28;20449;-67
2023/10/28 01:00:48;;;;;;;4.33;3.40;;;21.90;59.10;;;;;;5054498;28;20410;-67
2023/10/28 01:03:14;;;;;;;5.30;3.73;;;21.90;59.10;;;;;;5054836;28;20416;-66
2023/10/28 01:05:40;;;;;;;4.33;3.60;;;21.90;59.10;;;;;;5054525;28;20457;-67
2023/10/28 01:08:06;;;;;;;4.03;3.27;;;21.90;59.10;;;;;;5054375;28;20174;-68
2023/10/28 01:10:33;;;;;;;4.20;3.27;;;21.90;59.10;;;;;;5058262;28;20405;-67
2023/10/28 01:12:59;;;;;;;4.93;3.37;;;21.90;59.20;;;;;;5057996;28;20224;-66
2023/10/28 01:15:26;;;;;;;4.87;3.30;;;21.90;59.10;;;;;;5058344;28;20428;-66
2023/10/28 01:17:52;;;;;;;3.23;2.93;;;21.90;59.20;;;;;;5058046;28;20463;-68
2023/10/28 01:20:18;;;;;;;3.80;2.70;;;21.90;59.20;;;;;;5058272;28;20481;-66
2023/10/28 01:22:43;;;;;;;4.03;3.40;;;21.90;59.20;;;;;;5058374;28;20553;-67
2023/10/28 01:25:09;;;;;;;4.80;3.60;;;21.90;59.20;;;;;;5058183;28;20191;-67
2023/10/28 01:27:35;;;;;;;4.10;3.27;;;21.90;59.20;;;;;;5057795;28;20178;-67
2023/10/28 01:30:01;;;;;;;6.43;4.20;;;21.90;59.20;;;;;;5058135;28;20199;-67
2023/10/28 01:32:27;;;;;;;4.57;3.60;;;21.90;59.20;;;;;;5057560;28;20896;-65
2023/10/28 01:34:53;;;;;;;5.07;3.87;;;21.90;59.20;;;;;;5057780;28;20206;-67
2023/10/28 01:37:20;;;;;;;4.57;3.07;;;21.90;59.20;;;;;;5057676;28;20191;-67
2023/10/28 01:39:51;;;;;;;4.10;2.70;;;21.90;59.20;;;;;;5057624;28;20865;-67
2023/10/28 01:42:18;;;;;;;3.20;2.90;;;21.90;59.20;;;;;;5057287;28;20416;-67
2023/10/28 01:44:45;;;;;;;4.87;3.23;;;21.90;59.20;;;;;;5057615;28;20851;-67
2023/10/28 01:47:11;;;;;;;4.23;2.80;;;21.90;59.20;;;;;;5057539;28;20413;-66
2023/10/28 01:49:37;;;;;;;6.17;4.30;;;21.90;59.20;;;;;;5057224;28;21033;-68
2023/10/28 01:52:04;;;;;;;2.67;2.40;;;21.90;59.20;;;;;;5056134;28;20187;-67
2023/10/28 01:54:30;;;;;;;4.37;3.07;;;21.90;59.20;;;;;;5056765;28;20444;-67
2023/10/28 01:56:57;;;;;;;5.07;3.40;;;21.90;59.20;;;;;;5056138;28;20950;-67
2023/10/28 01:59:25;;;;;;;5.60;3.13;;;21.90;59.40;;;;;;5057142;28;20428;-67
2023/10/28 02:01:51;;;;;;;5.13;3.43;;;21.90;59.20;;;;;;5056936;28;20416;-68
2023/10/28 02:04:17;;;;;;;3.63;2.53;;;21.90;59.20;;;;;;5057520;28;20417;-67
2023/10/28 02:06:44;;;;;;;4.87;3.83;;;21.90;59.20;;;;;;5056789;28;20500;-67
2023/10/28 02:09:10;;;;;;;3.97;2.97;;;21.90;59.20;;;;;;5057186;28;20199;-67
2023/10/28 02:11:39;;;;;;;5.93;3.23;;;21.90;59.20;;;;;;5057020;28;20411;-65
2023/10/28 02:14:08;;;;;;;4.77;3.43;;;21.90;59.20;;;;;;5056520;28;20433;-67
2023/10/28 02:16:36;;;;;;;2.60;2.17;;;21.90;59.20;;;;;;5056879;28;20413;-68
2023/10/28 02:19:03;;;;;;;5.33;3.63;;;21.90;59.30;;;;;;5054813;28;20800;-67
2023/10/28 02:21:28;;;;;;;3.10;2.80;;;21.90;59.20;;;;;;5055420;28;20520;-64
2023/10/28 02:23:54;;;;;;;4.60;3.20;;;21.90;59.20;;;;;;5056694;28;20444;-67
2023/10/28 02:26:19;;;;;;;4.10;2.70;;;21.90;59.30;;;;;;5055126;28;20203;-67
2023/10/28 02:28:45;;;;;;;3.33;2.97;;;21.90;59.20;;;;;;5056197;28;20281;-68
2023/10/28 02:31:11;;;;;;;6.90;3.20;;;21.90;59.20;;;;;;5056288;28;20634;-66
2023/10/28 02:33:36;;;;;;;3.90;2.80;;;21.90;59.20;;;;;;5056701;28;20175;-67
2023/10/28 02:36:06;;;;;;;4.53;2.87;;;21.90;59.30;;;;;;5056905;28;20194;-65
2023/10/28 02:38:32;;;;;;;2.93;2.53;;;21.90;59.30;;;;;;5056609;28;20217;-68
2023/10/28 02:40:58;;;;;;;3.10;2.63;;;21.90;59.30;;;;;;5056364;28;20422;-67
2023/10/28 02:43:24;;;;;;;3.10;2.80;;;21.90;59.30;;;;;;5056604;28;20417;-67
2023/10/28 02:45:49;;;;;;;5.37;3.20;;;21.90;59.30;;;;;;5056580;28;20437;-67
2023/10/28 02:48:15;;;;;;;3.63;2.50;;;21.90;59.30;;;;;;5055884;28;20765;-67
2023/10/28 02:50:40;;;;;;;4.10;2.50;;;21.90;59.30;;;;;;5055754;28;20179;-67
2023/10/28 02:53:06;;;;;;;2.43;2.23;;;21.90;59.80;;;;;;5056062;28;20178;-68
2023/10/28 02:55:35;;;;;;;3.57;2.70;;;21.90;59.30;;;;;;5056270;28;20833;-67
2023/10/28 02:58:01;;;;;;;4.93;4.13;;;21.90;59.30;;;;;;5056815;28;20471;-66
2023/10/28 03:00:27;;;;;;;3.27;2.97;;;21.90;59.30;;;;;;5055889;28;20409;-66
2023/10/28 03:02:55;;;;;;;3.27;2.50;;;21.90;59.30;;;;;;5056045;28;20179;-67
2023/10/28 03:05:22;;;;;;;3.30;2.30;;;21.90;59.30;;;;;;5055696;28;20574;-67
2023/10/28 03:07:48;;;;;;;2.80;2.47;;;21.80;59.20;;;;;;5055850;28;20777;-67
2023/10/28 03:10:14;;;;;;;3.20;2.67;;;21.90;59.30;;;;;;5055342;28;20843;-67
2023/10/28 03:12:39;;;;;;;4.50;2.70;;;21.90;59.30;;;;;;5055359;28;20282;-67
2023/10/28 03:15:06;;;;;;;3.00;2.60;;;21.90;59.30;;;;;;5055496;28;20217;-67
2023/10/28 03:17:31;;;;;;;3.50;2.73;;;21.90;59.30;;;;;;5055362;28;20186;-67
2023/10/28 03:19:57;;;;;;;4.53;2.83;;;21.90;59.30;;;;;;5055127;28;20417;-66
2023/10/28 03:22:22;;;;;;;3.93;2.53;;;21.90;59.30;;;;;;5055215;28;20185;-67
2023/10/28 03:24:48;;;;;;;2.80;2.37;;;21.90;59.30;;;;;;5056579;28;20207;-67
2023/10/28 03:27:14;;;;;;;3.60;2.73;;;21.90;59.30;;;;;;5056215;28;20696;-67
2023/10/28 03:29:40;;;;;;;4.77;3.90;;;21.90;59.30;;;;;;5055936;28;20666;-68
2023/10/28 03:32:07;;;;;;;3.30;2.40;;;21.90;59.30;;;;;;5055584;28;20178;-67
2023/10/28 03:34:32;;;;;;;2.77;2.50;;;21.90;59.30;;;;;;5055134;28;20529;-66
2023/10/28 03:36:58;;;;;;;3.03;2.50;;;21.90;59.30;;;;;;5054069;28;20433;-67
2023/10/28 03:39:24;;;;;;;3.67;2.70;;;21.90;59.30;;;;;;5054784;28;20179;-67
2023/10/28 03:41:50;;;;;;;3.83;2.73;;;21.90;59.30;;;;;;5055510;28;20204;-67
2023/10/28 03:44:16;;;;;;;5.33;2.90;;;21.80;59.20;;;;;;5055031;28;20496;-67
2023/10/28 03:46:41;;;;;;;2.97;2.23;;;21.80;59.20;;;;;;5055833;28;20183;-66
2023/10/28 03:49:07;;;;;;;2.70;2.20;;;21.90;59.30;;;;;;5055037;28;20209;-66
2023/10/28 03:51:34;;;;;;;2.63;2.40;;;21.90;59.30;;;;;;5054755;28;20554;-66
2023/10/28 03:54:00;;;;;;;2.97;2.60;;;21.90;59.30;;;;;;5055504;28;20190;-65
2023/10/28 03:56:26;;;;;;;3.73;2.47;;;21.90;59.30;;;;;;5054380;28;20828;-67
2023/10/28 03:58:52;;;;;;;3.80;2.87;;;21.80;59.20;;;;;;5054842;28;20504;-67
2023/10/28 04:01:17;;;;;;;3.20;2.60;;;21.90;59.30;;;;;;5054409;28;20444;-67
2023/10/28 04:03:43;;;;;;;2.97;2.30;;;21.80;59.20;;;;;;5054713;28;20715;-68
2023/10/28 04:06:08;;;;;;;2.87;2.60;;;21.90;59.30;;;;;;5054527;28;20205;-68
2023/10/28 04:08:34;;;;;;;3.53;2.60;;;21.80;59.20;;;;;;5054903;28;20565;-66
2023/10/28 04:10:59;;;;;;;7.13;2.67;;;21.80;59.20;;;;;;5055047;28;20175;-67
2023/10/28 04:13:25;;;;;;;2.80;2.20;;;21.90;59.30;;;;;;5055197;28;20779;-67
2023/10/28 04:15:51;;;;;;;4.03;2.67;;;21.90;59.30;;;;;;5054411;28;20194;-66
2023/10/28 04:18:16;;;;;;;2.67;2.33;;;21.90;59.30;;;;;;5053117;28;20201;-67
2023/10/28 04:20:42;;;;;;;3.47;2.93;;;21.80;59.20;;;;;;5054702;28;20171;-66
2023/10/28 04:23:07;;;;;;;4.80;2.73;;;21.80;59.20;;;;;;5054896;28;20210;-67
2023/10/28 04:25:33;;;;;;;3.33;2.43;;;21.90;59.30;;;;;;5054724;28;20191;-67
2023/10/28 04:27:59;;;;;;;2.60;1.80;;;21.90;59.30;;;;;;5054533;28;20201;-67
2023/10/28 04:30:24;;;;;;;3.90;2.70;;;21.80;59.20;;;;;;5054691;28;20167;-67
2023/10/28 04:32:52;;;;;;;3.20;2.30;;;21.80;59.20;;;;;;5054526;28;20238;-67
2023/10/28 04:35:18;;;;;;;5.67;3.10;;;21.80;59.20;;;;;;5054244;28;20194;-67
2023/10/28 04:37:43;;;;;;;2.80;2.30;;;21.80;59.30;;;;;;5054692;28;20897;-67
2023/10/28 04:40:10;;;;;;;2.57;2.10;;;21.80;59.20;;;;;;5055050;28;20251;-67
2023/10/28 04:42:36;;;;;;;4.30;2.50;;;21.80;59.30;;;;;;5055310;28;20182;-67
2023/10/28 04:45:06;;;;;;;2.50;2.13;;;21.80;59.20;;;;;;5057969;28;20429;-67
2023/10/28 04:47:32;;;;;;;2.97;2.47;;;21.80;59.20;;;;;;5058219;28;20406;-67
2023/10/28 04:49:58;;;;;;;5.00;3.20;;;21.80;59.20;;;;;;5057939;28;20452;-66
2023/10/28 04:52:23;;;;;;;3.80;2.30;;;21.80;59.20;;;;;;5057956;28;20482;-67
2023/10/28 04:54:49;;;;;;;2.90;2.40;;;21.80;59.20;;;;;;5057399;28;20191;-67
2023/10/28 04:57:15;;;;;;;4.27;2.03;;;21.90;59.30;;;;;;5058515;28;20242;-67
2023/10/28 04:59:41;;;;;;;3.40;2.30;;;21.90;59.30;;;;;;5058726;28;20185;-67
2023/10/28 05:02:06;;;;;;;3.37;2.70;;;21.90;59.30;;;;;;5057687;28;20867;-67
2023/10/28 05:04:32;;;;;;;2.93;2.63;;;21.80;59.20;;;;;;5057453;28;20202;-67
2023/10/28 05:06:58;;;;;;;3.77;2.67;;;21.80;59.20;;;;;;5056974;28;20646;-67
2023/10/28 05:09:23;;;;;;;4.80;3.00;;;21.90;59.40;;;;;;5057720;28;20750;-67
2023/10/28 05:11:56;;;;;;;3.10;2.37;;;21.80;59.20;;;;;;5058406;28;20262;-67
2023/10/28 05:14:25;;;;;;;3.50;2.23;;;21.80;59.20;;;;;;5057009;28;20171;-67
2023/10/28 05:16:52;;;;;;;2.50;2.30;;;21.90;59.30;;;;;;5057747;28;20496;-67
2023/10/28 05:19:21;;;;;;;2.23;1.90;;;21.80;59.20;;;;;;5057323;28;20437;-67
2023/10/28 05:21:47;;;;;;;2.97;2.67;;;21.80;59.20;;;;;;5057396;28;20421;-67
2023/10/28 05:24:13;;;;;;;3.10;2.13;;;21.80;59.20;;;;;;5056461;28;20409;-69
2023/10/28 05:26:38;;;;;;;3.33;2.03;;;21.80;59.20;;;;;;5057316;28;20800;-67
2023/10/28 05:29:04;;;;;;;3.90;2.17;;;21.80;59.20;;;;;;5057119;28;20298;-67
2023/10/28 05:31:30;;;;;;;2.70;2.27;;;21.80;59.20;;;;;;5057615;28;20171;-67
2023/10/28 05:33:55;;;;;;;3.70;2.23;;;21.90;59.30;;;;;;5057228;28;20199;-67
2023/10/28 05:36:22;;;;;;;2.43;2.07;;;21.80;59.20;;;;;;5057073;28;20190;-67
2023/10/28 05:38:47;;;;;;;5.47;2.37;;;21.80;59.20;;;;;;5057430;28;20171;-66
2023/10/28 05:41:13;;;;;;;3.00;2.27;;;21.80;59.20;;;;;;5057180;28;21019;-66
2023/10/28 05:43:38;;;;;;;5.23;2.30;;;21.80;59.20;;;;;;5056608;28;20183;-67
2023/10/28 05:46:04;;;;;;;3.33;2.80;;;21.80;59.20;;;;;;5056840;28;20244;-67
2023/10/28 05:48:32;;;;;;;3.63;2.40;;;21.90;59.30;;;;;;5056963;28;20202;-67
2023/10/28 05:50:58;;;;;;;3.30;2.50;;;21.80;59.20;;;;;;5056951;28;20930;-66
2023/10/28 05:53:23;;;;;;;2.63;2.13;;;21.80;59.20;;;;;;5056256;28;20455;-66
2023/10/28 05:55:50;;;;;;;2.90;1.97;;;21.80;59.20;;;;;;5056761;28;20194;-66
2023/10/28 05:58:16;;;;;;;2.90;2.50;;;21.80;59.20;;;;;;5057185;28;20186;-66
2023/10/28 06:00:42;;;;;;;3.33;2.20;;;21.90;59.20;;;;;;5056810;28;20409;-67
2023/10/28 06:03:08;;;;;;;3.00;1.90;;;21.80;59.10;;;;;;5057023;28;20416;-66
2023/10/28 06:05:34;;;;;;;2.80;2.00;;;21.80;59.10;;;;;;5056687;28;20456;-66
2023/10/28 06:08:00;;;;;;;2.77;2.17;;;21.80;59.10;;;;;;5056704;28;20229;-66
2023/10/28 06:10:26;;;;;;;3.83;2.30;;;21.80;59.10;;;;;;5055307;28;20461;-67
2023/10/28 06:12:52;;;;;;;2.90;2.57;;;21.80;59.10;;;;;;5056374;28;20182;-67
2023/10/28 06:15:17;;;;;;;2.43;1.93;;;21.80;59.10;;;;;;5056383;28;20434;-66
2023/10/28 06:17:45;;;;;;;3.07;2.00;;;21.80;59.10;;;;;;5055896;28;20254;-66
2023/10/28 06:20:11;;;;;;;4.90;2.40;;;21.80;59.10;;;;;;5056042;28;20170;-66
2023/10/28 06:22:37;;;;;;;3.80;2.10;;;21.80;59.10;;;;;;5056041;28;20406;-67
2023/10/28 06:25:04;;;;;;;6.20;2.20;;;21.80;59.10;;;;;;5056556;28;20814;-65
2023/10/28 06:27:31;;;;;;;4.13;2.27;;;21.80;59.10;;;;;;5056476;28;20268;-66
2023/10/28 06:29:57;;;;;;;3.50;2.10;;;21.80;59.10;;;;;;5056923;28;20457;-66
2023/10/28 06:32:22;;;;;;;3.80;2.50;;;21.80;59.10;;;;;;5056142;28;20413;-66
2023/10/28 06:34:49;;;;;;;4.17;2.53;;;21.80;59.10;;;;;;5054891;28;20199;-66
2023/10/28 06:37:15;;;;;;;2.97;2.00;;;21.80;59.10;;;;;;5055932;28;20178;-66
2023/10/28 06:39:40;;;;;;;2.47;2.27;;;21.80;59.10;;;;;;5056742;28;20412;-65
2023/10/28 06:42:06;;;;;;;4.90;1.83;;;21.80;59.10;;;;;;5057312;28;20171;-66
2023/10/28 06:44:32;;;;;;;4.00;2.20;;;21.80;59.20;;;;;;5056552;28;20226;-67
2023/10/28 06:46:58;;;;;;;3.30;1.97;;;21.80;59.10;;;;;;5056709;28;20178;-67
2023/10/28 06:49:23;;;;;;;4.13;2.27;;;21.80;59.20;;;;;;5056772;28;20453;-66
2023/10/28 06:51:50;;;;;;;3.17;2.10;;;21.80;59.20;;;;;;5056201;28;20182;-66
2023/10/28 06:54:16;;;;;;;2.73;1.97;;;21.80;59.20;;;;;;5056291;28;20164;-66
2023/10/28 06:56:41;;;;;;;3.70;1.80;;;21.80;59.20;;;;;;5055322;28;20405;-66
2023/10/28 06:59:07;;;;;;;3.83;2.60;;;21.80;59.20;;;;;;5055183;28;20553;-66
2023/10/28 07:01:34;;;;;;;2.47;1.97;;;21.80;59.20;;;;;;5054809;28;20672;-66
2023/10/28 07:04:01;;;;;;;3.30;2.40;;;21.80;59.20;;;;;;5056219;28;20186;-66
2023/10/28 07:06:26;;;;;;;4.97;1.73;;;21.80;59.20;;;;;;5055502;28;20437;-66
2023/10/28 07:08:52;;;;;;;2.50;2.30;;;21.80;59.20;;;;;;5055768;28;21058;-67
2023/10/28 07:11:17;;;;;;;3.17;2.17;;;21.80;59.20;;;;;;5055638;28;20167;-66
2023/10/28 07:13:44;;;;;;;3.63;2.23;;;21.80;59.20;;;;;;5055956;28;20178;-66
2023/10/28 07:16:10;;;;;;;2.80;2.27;;;21.80;59.20;;;;;;5055560;28;20182;-67
2023/10/28 07:18:35;;;;;;;2.67;2.03;;;21.80;59.20;;;;;;5055359;28;21041;-66
2023/10/28 07:21:03;;;;;;;4.00;2.00;;;21.80;59.20;;;;;;5055976;28;20250;-66
2023/10/28 07:23:30;;;;;;;2.70;2.07;;;21.80;59.20;;;;;;5055780;28;20225;-66
2023/10/28 07:25:56;;;;;;;2.80;2.00;;;21.80;59.20;;;;;;5055039;28;20440;-66
2023/10/28 07:28:23;;;;;;;3.67;2.10;;;21.80;59.10;;;;;;5055122;28;20439;-66
2023/10/28 07:30:51;;;;;;;2.13;1.90;;;21.80;59.20;;;;;;5055613;28;20485;-67
2023/10/28 07:33:21;;;;;;;3.00;2.20;;;21.80;59.20;;;;;;5055316;28;20820;-65
2023/10/28 07:35:48;;;;;;;2.90;1.87;;;21.80;59.20;;;;;;5053618;28;20438;-66
2023/10/28 07:38:15;;;;;;;3.43;2.33;;;21.80;59.20;;;;;;5055822;28;20409;-65
2023/10/28 07:40:41;;;;;;;3.23;2.07;;;21.80;59.20;;;;;;5055659;28;20421;-66
2023/10/28 07:43:07;;;;;;;3.13;1.87;;;21.80;59.20;;;;;;5055271;28;20527;-65
2023/10/28 07:45:33;;;;;;;3.83;2.10;;;21.80;59.20;;;;;;5055232;28;20956;-65
2023/10/28 07:47:59;;;;;;;2.27;1.70;;;21.80;59.20;;;;;;5055396;28;20409;-66
2023/10/28 07:50:25;;;;;;;3.40;1.77;;;21.80;59.20;;;;;;5055321;28;20543;-66
2023/10/28 07:52:50;;;;;;;3.10;1.83;;;21.80;59.20;;;;;;5055284;28;20174;-66
2023/10/28 07:55:16;;;;;;;2.37;2.00;;;21.80;59.20;;;;;;5054796;28;20191;-67
2023/10/28 07:57:43;;;;;;;3.67;2.13;;;21.80;59.20;;;;;;5055417;28;20298;-66
2023/10/28 08:00:11;;;;;;;2.27;1.67;;;21.80;59.20;;;;;;5055050;28;20194;-66
2023/10/28 08:02:37;;;;;;;2.63;1.87;;;21.80;59.20;;;;;;5053719;28;20512;-66
2023/10/28 08:05:04;;;;;;;3.10;1.97;;;21.80;59.20;;;;;;5054843;28;20591;-66
2023/10/28 08:07:30;;;;;;;4.10;1.80;;;21.80;59.20;;;;;;5054895;28;20421;-66
2023/10/28 08:09:56;;;;;;;2.67;1.93;;;21.80;59.20;;;;;;5054738;28;20511;-66
2023/10/28 08:12:25;;;;;;;2.17;1.80;;;21.80;59.20;;;;;;5054443;28;20250;-66
2023/10/28 08:14:51;;;;;;;2.83;2.53;;;21.80;59.20;;;;;;5055660;28;20438;-66
2023/10/28 08:17:16;;;;;;;2.23;2.03;;;21.80;59.20;;;;;;5054411;28;20415;-66
2023/10/28 08:19:42;;;;;;;2.50;1.87;;;21.80;59.20;;;;;;5055326;28;20273;-66
2023/10/28 08:22:07;;;;;;;1.80;1.60;;;21.80;59.20;;;;;;5054596;28;20217;-65
2023/10/28 08:24:33;;;;;;;2.63;2.10;;;21.80;59.20;;;;;;5054345;28;20206;-66
2023/10/28 08:26:58;;;;;;;2.03;1.83;;;21.80;59.20;;;;;;5054733;28;20174;-65
2023/10/28 08:29:24;;;;;;;2.70;2.00;;;21.90;59.30;;;;;;5054525;28;20264;-66
2023/10/28 08:31:50;;;;;;;3.00;1.90;;;21.80;59.20;;;;;;5054262;28;20175;-65
2023/10/28 08:34:16;;;;;;;1.70;1.50;;;21.80;59.20;;;;;;5053918;28;20181;-66
2023/10/28 08:36:42;;;;;;;2.00;1.60;;;21.80;59.20;;;;;;5054721;28;21042;-66
2023/10/28 08:39:08;;;;;;;2.00;1.80;;;21.80;59.20;;;;;;5054985;28;20406;-66
2023/10/28 08:41:34;;;;;;;4.03;2.33;;;21.80;59.20;;;;;;5054904;28;20183;-65
2023/10/28 08:44:04;;;;;;;3.67;2.33;;;21.80;59.20;;;;;;5054606;28;20187;-66
2023/10/28 08:46:31;;;;;;;2.03;1.63;;;21.80;59.20;;;;;;5053099;28;20451;-66
2023/10/28 08:48:58;;;;;;;2.70;1.97;;;21.80;59.20;;;;;;5054266;28;20894;-66
2023/10/28 08:51:25;;;;;;;2.17;1.63;;;21.80;59.30;;;;;;5054029;28;20444;-66
2023/10/28 08:53:54;;;;;;;2.83;1.70;;;21.80;59.20;;;;;;5054657;28;20412;-66
2023/10/28 08:56:23;;;;;;;2.87;1.60;;;21.80;59.20;;;;;;5053233;28;20494;-67
2023/10/28 08:58:50;;;;;;;1.73;1.60;;;21.80;59.20;;;;;;5054581;28;20435;-68
2023/10/28 09:01:19;;;;;;;2.90;2.10;;;21.80;59.30;;;;;;5054253;28;20421;-66
2023/10/28 09:03:47;;;;;;;4.07;2.27;;;21.80;59.30;;;;;;5055250;28;20528;-65
2023/10/28 09:06:13;;;;;;;2.67;1.97;;;21.80;59.30;;;;;;5054517;28;20429;-66
2023/10/28 09:08:38;;;;;;;4.93;1.97;;;21.80;59.30;;;;;;5054637;28;20926;-66
2023/10/28 09:11:04;;;;;;;2.97;1.90;;;21.80;59.30;;;;;;5054553;28;20195;-67
2023/10/28 09:13:30;;;;;;;4.03;1.53;;;21.80;59.30;;;;;;5054601;28;20179;-65
2023/10/28 09:15:56;;;;;;;2.13;1.93;;;21.80;59.30;;;;;;5054812;28;20210;-66
2023/10/28 09:18:22;;;;;;;2.60;1.70;;;21.80;59.30;;;;;;5054175;28;20464;-66
2023/10/28 09:20:48;;;;;;;3.33;1.63;;;21.80;59.90;;;;;;5054315;28;20599;-66
2023/10/28 09:23:15;;;;;;;2.37;1.70;;;21.80;59.30;;;;;;5054133;28;20164;-65
2023/10/28 09:25:40;;;;;;;3.73;2.03;;;21.80;59.30;;;;;;5054790;28;20512;-66
2023/10/28 09:28:15;;;;;;;3.50;2.20;;;21.90;59.40;;;;;;5054270;28;20500;-66
2023/10/28 09:30:47;;;;;;;3.33;2.10;;;21.80;59.30;;;;;;5058103;28;20534;-66
2023/10/28 09:33:14;;;;;;;1.70;1.40;;;21.90;59.40;;;;;;5057488;28;20397;-66
2023/10/28 09:35:43;;;;;;;2.53;2.00;;;21.80;59.30;;;;;;5057660;28;20424;-64
2023/10/28 09:38:10;;;;;;;2.90;2.03;;;21.90;59.40;;;;;;5057731;28;20434;-66
2023/10/28 09:40:35;;;;;;;2.57;1.93;;;21.90;59.40;;;;;;5057826;28;20470;-66
2023/10/28 09:43:03;;;;;;;3.07;1.90;;;21.80;59.30;;;;;;5057658;28;20490;-66
2023/10/28 09:45:29;;;;;;;3.83;1.97;;;21.80;59.30;;;;;;5057325;28;20191;-66
2023/10/28 09:48:01;;;;;;;3.23;1.80;;;21.80;59.30;;;;;;5057611;28;20403;-65
2023/10/28 09:50:29;;;;;;;2.10;1.70;;;21.90;59.40;;;;;;5056920;28;20191;-66
2023/10/28 09:52:56;;;;;;;1.93;1.73;;;21.80;59.30;;;;;;5057823;28;20420;-66
2023/10/28 09:55:36;;;;;;;1.93;1.73;;;21.80;59.30;;;;;;5056765;28;20425;-67
2023/10/28 09:58:41;;;;;;;1.67;1.50;;;21.90;59.30;;;;;;5056112;28;20422;-66
2023/10/28 10:01:37;;;;;;;3.73;1.70;;;21.90;59.40;;;;;;5057491;28;20405;-65
2023/10/28 10:04:24;;;;;;;3.07;1.67;;;21.80;59.30;;;;;;5057341;28;20449;-65
2023/10/28 10:06:51;;;;;;;2.40;1.40;;;21.90;59.40;;;;;;5056919;28;20430;-67
2023/10/28 10:09:18;;;;;;;2.00;1.50;;;21.90;59.40;;;;;;5057039;28;20459;-66
2023/10/28 10:11:44;;;;;;;2.17;1.73;;;21.80;59.30;;;;;;5057177;28;20424;-66
2023/10/28 10:14:11;;;;;;;2.70;1.90;;;21.90;59.40;;;;;;5057314;28;20410;-66
2023/10/28 10:16:49;;;;;;;3.20;2.07;;;21.90;59.40;;;;;;5056854;28;20207;-65
2023/10/28 10:19:27;;;;;;;2.77;1.80;;;21.90;59.40;;;;;;5057437;28;20425;-66
2023/10/28 10:21:56;;;;;;;2.50;1.83;;;21.90;59.40;;;;;;5057213;28;20430;-65
2023/10/28 10:24:22;;;;;;;2.03;1.67;;;21.90;59.40;;;;;;5055691;28;20417;-66
2023/10/28 10:26:55;;;;;;;2.23;1.63;;;21.90;59.40;;;;;;5056820;28;20417;-64
2023/10/28 10:29:21;;;;;;;2.27;1.73;;;21.90;59.40;;;;;;5056876;28;20206;-66
2023/10/28 10:31:55;;;;;;;2.00;1.50;;;21.90;59.40;;;;;;5057101;28;20413;-65
2023/10/28 10:34:36;;;;;;;1.73;1.40;;;21.90;59.40;;;;;;5056890;28;20167;-66
2023/10/28 10:37:03;;;;;;;1.67;1.33;;;21.90;59.30;;;;;;5056500;28;20418;-66
2023/10/28 10:39:46;;;;;;;2.07;1.50;;;21.90;59.30;;;;;;5057050;28;20418;-66
2023/10/28 10:42:12;;;;;;;1.90;1.30;;;21.90;59.40;;;;;;5056190;28;20478;-66
2023/10/28 10:44:39;;;;;;;1.73;1.57;;;21.90;59.30;;;;;;5056600;28;20437;-67
2023/10/28 10:47:10;;;;;;;2.97;2.10;;;21.90;59.30;;;;;;5057507;28;20447;-67
2023/10/28 10:49:38;;;;;;;2.37;2.17;;;21.90;59.30;;;;;;5056285;28;20883;-66
2023/10/28 10:52:05;;;;;;;2.23;1.60;;;21.90;59.30;;;;;;5056215;28;20500;-66
2023/10/28 10:54:36;;;;;;;3.50;1.70;;;21.90;59.30;;;;;;5055942;28;20437;-66
2023/10/28 10:57:02;;;;;;;1.87;1.60;;;22.00;59.30;;;;;;5056342;28;20405;-66
2023/10/28 10:59:29;;;;;;;2.07;1.67;;;21.90;59.30;;;;;;5056112;28;20416;-66
2023/10/28 11:02:00;;;;;;;1.47;1.27;;;22.00;59.30;;;;;;5056643;28;20406;-66
2023/10/28 11:04:27;;;;;;;1.80;1.47;;;21.90;59.20;;;;;;5057008;28;20405;-67
2023/10/28 11:06:53;;;;;;;1.80;1.60;;;21.90;59.20;;;;;;5055744;28;20826;-66
2023/10/28 11:09:19;;;;;;;2.20;1.63;;;21.90;59.20;;;;;;5054754;28;20465;-66
2023/10/28 11:11:44;;;;;;;1.60;1.50;;;21.90;59.20;;;;;;5055894;28;20413;-66
2023/10/28 11:14:12;;;;;;;3.10;1.90;;;21.90;59.20;;;;;;5055953;28;20249;-67
2023/10/28 11:16:39;;;;;;;1.80;1.40;;;22.00;59.20;;;;;;5055916;28;20602;-67
2023/10/28 11:19:05;;;;;;;2.20;1.73;;;21.90;59.20;;;;;;5055732;28;20855;-66
2023/10/28 11:21:32;;;;;;;3.37;1.80;;;22.00;59.30;;;;;;5056202;28;20413;-66
2023/10/28 11:23:58;;;;;;;2.73;1.83;;;22.00;59.30;;;;;;5055929;28;20175;-67
2023/10/28 11:26:25;;;;;;;3.03;1.70;;;22.00;59.30;;;;;;5054155;28;21133;-67
2023/10/28 11:28:50;;;;;;;1.93;1.67;;;22.00;59.30;;;;;;5055755;28;20492;-66
2023/10/28 11:31:20;;;;;;;2.47;1.47;;;21.90;59.20;;;;;;5046631;28;20426;-67
2023/10/28 11:33:48;;;;;;;2.10;1.50;;;22.00;59.40;;;;;;5055986;28;20202;-67
2023/10/28 11:36:15;;;;;;;2.33;1.30;;;22.00;59.40;;;;;;5053750;28;20433;-67
2023/10/28 11:38:40;;;;;;;1.83;1.37;;;22.00;59.40;;;;;;5053382;28;20409;-67
2023/10/28 11:41:07;;;;;;;2.30;1.80;;;22.00;59.40;;;;;;5053710;28;20961;-66
2023/10/28 11:43:34;;;;;;;1.80;1.60;;;22.00;59.30;;;;;;5052915;28;20179;-67
2023/10/28 11:45:59;;;;;;;1.53;1.27;;;22.00;59.30;;;;;;5054540;28;20433;-66
2023/10/28 11:48:26;;;;;;;1.93;1.20;;;22.00;59.30;;;;;;5054908;28;20409;-67
2023/10/28 11:50:51;;;;;;;3.20;1.53;;;22.00;59.20;;;;;;5054762;28;20171;-67
2023/10/28 11:53:25;;;;;;;1.63;1.50;;;22.00;59.30;;;;;;5054927;28;20405;-66
2023/10/28 11:55:52;;;;;;;1.80;1.43;;;22.00;59.30;;;;;;5053633;28;20219;-66
2023/10/28 11:58:18;;;;;;;1.67;1.50;;;22.00;59.30;;;;;;5054351;28;20409;-67
2023/10/28 12:00:45;;;;;;;1.47;1.20;;;22.00;59.40;;;;;;5054471;28;20448;-67
2023/10/28 12:03:11;;;;;;;2.93;1.30;;;22.00;59.40;;;;;;5054436;28;20443;-67
2023/10/28 12:05:38;;;;;;;1.77;1.43;;;22.00;59.30;;;;;;5054538;28;20422;-67
2023/10/28 12:08:04;;;;;;;4.90;1.63;;;22.00;59.30;;;;;;5054925;28;20410;-67
2023/10/28 12:10:32;;;;;;;2.23;2.00;;;22.00;59.30;;;;;;5054231;28;20539;-65
2023/10/28 12:12:57;;;;;;;3.20;1.30;;;22.00;59.20;;;;;;5055010;28;20409;-66
2023/10/28 12:15:23;;;;;;;2.50;1.53;;;22.00;59.20;;;;;;5054524;28;20440;-66
2023/10/28 12:17:49;;;;;;;2.80;1.33;;;22.00;59.10;;;;;;5054207;28;20195;-66
2023/10/28 12:20:14;;;;;;;3.73;1.90;;;22.00;59.10;;;;;;5054872;28;20194;-66
2023/10/28 12:22:41;;;;;;;2.60;1.63;;;22.00;59.10;;;;;;5054035;28;20562;-67
2023/10/28 12:25:09;;;;;;;3.70;1.87;;;22.00;59.00;;;;;;5054231;28;20811;-67
2023/10/28 12:27:36;;;;;;;1.40;1.30;;;22.00;59.00;;;;;;5054230;28;20416;-67
2023/10/28 12:30:06;;;;;;;1.90;1.40;;;22.00;59.10;;;;;;5053854;28;20465;-68
2023/10/28 12:32:31;;;;;;;2.53;1.50;;;22.00;59.10;;;;;;5052909;28;20406;-67
2023/10/28 12:34:57;;;;;;;2.10;1.63;;;22.00;59.10;;;;;;5054058;28;20432;-66
2023/10/28 12:37:24;;;;;;;2.53;1.40;;;22.00;59.20;;;;;;5053961;28;20424;-66
2023/10/28 12:39:50;;;;;;;2.17;1.60;;;22.00;59.10;;;;;;5054076;28;20170;-67
2023/10/28 12:42:15;;;;;;;3.03;1.60;;;22.00;59.10;;;;;;5054384;28;20413;-67
2023/10/28 12:44:41;;;;;;;1.73;1.50;;;22.00;59.10;;;;;;5053734;28;20195;-67
2023/10/28 12:47:07;;;;;;;2.20;1.63;;;22.00;59.10;;;;;;5054064;28;20175;-67